sensor_id;sensor_type;location;lat;lon;timestamp;P1;durP1;ratioP1;P2;durP2;ratioP2
30096;SDS011;16915;51.466;3.610;2023-06-10T00:01:37;7.00;;;6.25;;
30096;SDS011;16915;51.466;3.610;2023-06-10T00:04:02;7.97;;;5.90;;
30096;SDS011;16915;51.466;3.610;2023-06-10T00:06:29;7.10;;;6.45;;
30096;SDS011;16915;51.466;3.610;2023-06-10T00:11:26;7.15;;;6.45;;
30096;SDS011;16915;51.466;3.610;2023-06-10T00:13:51;6.95;;;6.28;;
30096;SDS011;16915;51.466;3.610;2023-06-10T00:16:17;8.75;;;6.35;;
30096;SDS011;16915;51.466;3.610;2023-06-10T00:18:43;7.43;;;6.47;;
30096;SDS011;16915;51.466;3.610;2023-06-10T00:21:09;8.02;;;6.32;;
30096;SDS011;16915;51.466;3.610;2023-06-10T00:23:35;8.63;;;6.15;;
30096;SDS011;16915;51.466;3.610;2023-06-10T00:26:03;8.48;;;6.13;;
30096;SDS011;16915;51.466;3.610;2023-06-10T00:28:29;7.50;;;6.28;;
30096;SDS011;16915;51.466;3.610;2023-06-10T00:30:55;6.93;;;6.32;;
30096;SDS011;16915;51.466;3.610;2023-06-10T00:33:20;7.03;;;6.32;;
30096;SDS011;16915;51.466;3.610;2023-06-10T00:35:46;7.97;;;7.18;;
30096;SDS011;16915;51.466;3.610;2023-06-10T00:38:13;7.07;;;6.30;;
30096;SDS011;16915;51.466;3.610;2023-06-10T00:40:39;12.10;;;6.47;;
30096;SDS011;16915;51.466;3.610;2023-06-10T00:43:06;6.88;;;6.28;;
30096;SDS011;16915;51.466;3.610;2023-06-10T00:45:32;8.52;;;7.20;;
30096;SDS011;16915;51.466;3.610;2023-06-10T00:47:58;6.97;;;6.32;;
30096;SDS011;16915;51.466;3.610;2023-06-10T00:50:25;8.45;;;6.82;;
30096;SDS011;16915;51.466;3.610;2023-06-10T00:52:50;8.40;;;6.47;;
30096;SDS011;16915;51.466;3.610;2023-06-10T00:55:17;7.47;;;6.47;;
30096;SDS011;16915;51.466;3.610;2023-06-10T00:57:44;7.68;;;6.60;;
30096;SDS011;16915;51.466;3.610;2023-06-10T01:00:11;7.20;;;6.57;;
30096;SDS011;16915;51.466;3.610;2023-06-10T01:02:38;10.40;;;6.47;;
30096;SDS011;16915;51.466;3.610;2023-06-10T01:05:03;9.48;;;6.65;;
30096;SDS011;16915;51.466;3.610;2023-06-10T01:07:37;7.50;;;6.63;;
30096;SDS011;16915;51.466;3.610;2023-06-10T01:10:18;10.43;;;6.40;;
30096;SDS011;16915;51.466;3.610;2023-06-10T01:12:52;9.23;;;6.60;;
30096;SDS011;16915;51.466;3.610;2023-06-10T01:15:24;6.95;;;6.35;;
30096;SDS011;16915;51.466;3.610;2023-06-10T01:18:00;7.57;;;6.88;;
30096;SDS011;16915;51.466;3.610;2023-06-10T01:20:31;7.57;;;6.88;;
30096;SDS011;16915;51.466;3.610;2023-06-10T01:22:57;7.95;;;6.70;;
30096;SDS011;16915;51.466;3.610;2023-06-10T01:25:25;7.68;;;6.18;;
30096;SDS011;16915;51.466;3.610;2023-06-10T01:28:00;9.75;;;6.90;;
30096;SDS011;16915;51.466;3.610;2023-06-10T01:33:33;7.80;;;6.70;;
30096;SDS011;16915;51.466;3.610;2023-06-10T01:36:02;7.78;;;6.63;;
30096;SDS011;16915;51.466;3.610;2023-06-10T01:38:30;8.40;;;6.88;;
30096;SDS011;16915;51.466;3.610;2023-06-10T01:40:58;8.85;;;7.20;;
30096;SDS011;16915;51.466;3.610;2023-06-10T01:43:24;7.78;;;7.00;;
30096;SDS011;16915;51.466;3.610;2023-06-10T01:45:50;8.65;;;7.47;;
30096;SDS011;16915;51.466;3.610;2023-06-10T01:48:16;7.32;;;6.65;;
30096;SDS011;16915;51.466;3.610;2023-06-10T01:50:41;8.20;;;7.43;;
30096;SDS011;16915;51.466;3.610;2023-06-10T01:53:08;10.27;;;7.78;;
30096;SDS011;16915;51.466;3.610;2023-06-10T01:55:34;10.60;;;7.35;;
30096;SDS011;16915;51.466;3.610;2023-06-10T01:58:00;10.95;;;7.32;;
30096;SDS011;16915;51.466;3.610;2023-06-10T02:00:25;8.25;;;7.43;;
30096;SDS011;16915;51.466;3.610;2023-06-10T02:02:51;8.50;;;7.57;;
30096;SDS011;16915;51.466;3.610;2023-06-10T02:05:16;8.90;;;8.02;;
30096;SDS011;16915;51.466;3.610;2023-06-10T02:07:42;13.55;;;8.25;;
30096;SDS011;16915;51.466;3.610;2023-06-10T02:10:08;10.40;;;7.60;;
30096;SDS011;16915;51.466;3.610;2023-06-10T02:12:33;9.85;;;8.40;;
30096;SDS011;16915;51.466;3.610;2023-06-10T02:14:59;8.90;;;7.47;;
30096;SDS011;16915;51.466;3.610;2023-06-10T02:17:25;9.73;;;8.48;;
30096;SDS011;16915;51.466;3.610;2023-06-10T02:19:51;9.65;;;8.75;;
30096;SDS011;16915;51.466;3.610;2023-06-10T02:22:20;9.02;;;8.23;;
30096;SDS011;16915;51.466;3.610;2023-06-10T02:24:47;10.80;;;8.85;;
30096;SDS011;16915;51.466;3.610;2023-06-10T02:27:12;9.73;;;8.73;;
30096;SDS011;16915;51.466;3.610;2023-06-10T02:29:38;11.02;;;9.07;;
30096;SDS011;16915;51.466;3.610;2023-06-10T02:32:04;13.32;;;8.38;;
30096;SDS011;16915;51.466;3.610;2023-06-10T02:34:30;11.48;;;9.07;;
30096;SDS011;16915;51.466;3.610;2023-06-10T02:36:56;10.18;;;9.07;;
30096;SDS011;16915;51.466;3.610;2023-06-10T02:39:22;10.45;;;8.85;;
30096;SDS011;16915;51.466;3.610;2023-06-10T02:41:47;13.13;;;9.07;;
30096;SDS011;16915;51.466;3.610;2023-06-10T02:44:13;11.07;;;9.73;;
30096;SDS011;16915;51.466;3.610;2023-06-10T02:46:38;9.32;;;8.40;;
30096;SDS011;16915;51.466;3.610;2023-06-10T02:49:04;14.38;;;9.85;;
30096;SDS011;16915;51.466;3.610;2023-06-10T02:51:29;10.30;;;9.32;;
30096;SDS011;16915;51.466;3.610;2023-06-10T02:53:55;10.60;;;9.60;;
30096;SDS011;16915;51.466;3.610;2023-06-10T02:56:20;10.10;;;9.15;;
30096;SDS011;16915;51.466;3.610;2023-06-10T02:58:46;10.82;;;9.73;;
30096;SDS011;16915;51.466;3.610;2023-06-10T03:01:13;14.55;;;9.73;;
30096;SDS011;16915;51.466;3.610;2023-06-10T03:03:39;11.25;;;10.15;;
30096;SDS011;16915;51.466;3.610;2023-06-10T03:06:07;11.60;;;9.57;;
30096;SDS011;16915;51.466;3.610;2023-06-10T03:08:35;12.75;;;10.15;;
30096;SDS011;16915;51.466;3.610;2023-06-10T03:11:01;10.57;;;9.50;;
30096;SDS011;16915;51.466;3.610;2023-06-10T03:13:26;11.43;;;10.27;;
30096;SDS011;16915;51.466;3.610;2023-06-10T03:15:52;12.10;;;10.25;;
30096;SDS011;16915;51.466;3.610;2023-06-10T03:18:18;10.70;;;9.60;;
30096;SDS011;16915;51.466;3.610;2023-06-10T03:20:43;13.40;;;9.40;;
30096;SDS011;16915;51.466;3.610;2023-06-10T03:23:09;13.00;;;10.00;;
30096;SDS011;16915;51.466;3.610;2023-06-10T03:25:35;10.43;;;9.43;;
30096;SDS011;16915;51.466;3.610;2023-06-10T03:28:00;14.02;;;9.77;;
30096;SDS011;16915;51.466;3.610;2023-06-10T03:30:27;13.10;;;9.65;;
30096;SDS011;16915;51.466;3.610;2023-06-10T03:32:53;10.45;;;9.35;;
30096;SDS011;16915;51.466;3.610;2023-06-10T03:35:18;13.00;;;9.63;;
30096;SDS011;16915;51.466;3.610;2023-06-10T03:37:44;12.63;;;9.73;;
30096;SDS011;16915;51.466;3.610;2023-06-10T03:40:10;13.32;;;9.48;;
30096;SDS011;16915;51.466;3.610;2023-06-10T03:42:36;10.70;;;9.07;;
30096;SDS011;16915;51.466;3.610;2023-06-10T03:45:02;13.43;;;9.50;;
30096;SDS011;16915;51.466;3.610;2023-06-10T03:47:35;12.32;;;9.65;;
30096;SDS011;16915;51.466;3.610;2023-06-10T03:50:02;10.25;;;9.20;;
30096;SDS011;16915;51.466;3.610;2023-06-10T03:52:28;10.30;;;9.07;;
30096;SDS011;16915;51.466;3.610;2023-06-10T03:54:54;10.65;;;9.55;;
30096;SDS011;16915;51.466;3.610;2023-06-10T03:57:20;10.52;;;8.63;;
30096;SDS011;16915;51.466;3.610;2023-06-10T03:59:45;13.93;;;9.38;;
30096;SDS011;16915;51.466;3.610;2023-06-10T04:02:11;10.30;;;9.40;;
30096;SDS011;16915;51.466;3.610;2023-06-10T04:04:36;9.75;;;8.75;;
30096;SDS011;16915;51.466;3.610;2023-06-10T04:07:03;10.35;;;9.32;;
30096;SDS011;16915;51.466;3.610;2023-06-10T04:09:33;10.07;;;8.27;;
30096;SDS011;16915;51.466;3.610;2023-06-10T04:11:59;9.95;;;8.93;;
30096;SDS011;16915;51.466;3.610;2023-06-10T04:14:25;12.43;;;9.68;;
30096;SDS011;16915;51.466;3.610;2023-06-10T04:16:51;10.15;;;9.00;;
30096;SDS011;16915;51.466;3.610;2023-06-10T04:19:16;9.95;;;8.85;;
30096;SDS011;16915;51.466;3.610;2023-06-10T04:21:42;10.00;;;8.98;;
30096;SDS011;16915;51.466;3.610;2023-06-10T04:24:07;12.88;;;8.52;;
30096;SDS011;16915;51.466;3.610;2023-06-10T04:26:34;11.80;;;8.32;;
30096;SDS011;16915;51.466;3.610;2023-06-10T04:29:00;8.88;;;8.05;;
30096;SDS011;16915;51.466;3.610;2023-06-10T04:31:26;9.85;;;8.88;;
30096;SDS011;16915;51.466;3.610;2023-06-10T04:33:52;10.57;;;8.23;;
30096;SDS011;16915;51.466;3.610;2023-06-10T04:36:18;9.35;;;8.45;;
30096;SDS011;16915;51.466;3.610;2023-06-10T04:38:44;10.88;;;8.30;;
30096;SDS011;16915;51.466;3.610;2023-06-10T04:41:10;9.45;;;8.55;;
30096;SDS011;16915;51.466;3.610;2023-06-10T04:43:36;10.05;;;8.00;;
30096;SDS011;16915;51.466;3.610;2023-06-10T04:46:01;8.63;;;7.82;;
30096;SDS011;16915;51.466;3.610;2023-06-10T04:48:27;9.50;;;8.23;;
30096;SDS011;16915;51.466;3.610;2023-06-10T04:50:52;10.70;;;7.95;;
30096;SDS011;16915;51.466;3.610;2023-06-10T04:53:18;8.63;;;7.50;;
30096;SDS011;16915;51.466;3.610;2023-06-10T04:55:44;9.15;;;8.20;;
30096;SDS011;16915;51.466;3.610;2023-06-10T04:58:09;7.78;;;7.03;;
30096;SDS011;16915;51.466;3.610;2023-06-10T05:00:35;8.35;;;7.20;;
30096;SDS011;16915;51.466;3.610;2023-06-10T05:03:01;11.65;;;7.95;;
30096;SDS011;16915;51.466;3.610;2023-06-10T05:05:26;12.93;;;8.00;;
30096;SDS011;16915;51.466;3.610;2023-06-10T05:07:52;8.25;;;7.30;;
30096;SDS011;16915;51.466;3.610;2023-06-10T05:10:17;10.52;;;7.45;;
30096;SDS011;16915;51.466;3.610;2023-06-10T05:12:43;9.98;;;7.45;;
30096;SDS011;16915;51.466;3.610;2023-06-10T05:15:08;9.00;;;7.68;;
30096;SDS011;16915;51.466;3.610;2023-06-10T05:17:34;7.90;;;7.10;;
30096;SDS011;16915;51.466;3.610;2023-06-10T05:20:00;9.63;;;7.40;;
30096;SDS011;16915;51.466;3.610;2023-06-10T05:22:26;9.40;;;7.28;;
30096;SDS011;16915;51.466;3.610;2023-06-10T05:24:52;9.65;;;7.60;;
30096;SDS011;16915;51.466;3.610;2023-06-10T05:27:18;10.10;;;8.00;;
30096;SDS011;16915;51.466;3.610;2023-06-10T05:29:44;9.40;;;7.82;;
30096;SDS011;16915;51.466;3.610;2023-06-10T05:32:10;9.15;;;8.02;;
30096;SDS011;16915;51.466;3.610;2023-06-10T05:34:36;8.45;;;7.75;;
30096;SDS011;16915;51.466;3.610;2023-06-10T05:37:02;11.23;;;8.80;;
30096;SDS011;16915;51.466;3.610;2023-06-10T05:39:28;10.23;;;7.97;;
30096;SDS011;16915;51.466;3.610;2023-06-10T05:41:54;10.88;;;8.40;;
30096;SDS011;16915;51.466;3.610;2023-06-10T05:44:19;8.82;;;7.93;;
30096;SDS011;16915;51.466;3.610;2023-06-10T05:46:45;10.95;;;8.00;;
30096;SDS011;16915;51.466;3.610;2023-06-10T05:49:11;9.10;;;8.30;;
30096;SDS011;16915;51.466;3.610;2023-06-10T05:51:36;10.30;;;7.85;;
30096;SDS011;16915;51.466;3.610;2023-06-10T05:54:02;9.02;;;8.20;;
30096;SDS011;16915;51.466;3.610;2023-06-10T05:56:28;9.32;;;8.43;;
30096;SDS011;16915;51.466;3.610;2023-06-10T05:58:54;9.52;;;7.80;;
30096;SDS011;16915;51.466;3.610;2023-06-10T06:01:19;11.95;;;8.23;;
30096;SDS011;16915;51.466;3.610;2023-06-10T06:03:45;8.85;;;7.95;;
30096;SDS011;16915;51.466;3.610;2023-06-10T06:06:10;9.60;;;8.05;;
30096;SDS011;16915;51.466;3.610;2023-06-10T06:08:36;10.13;;;9.10;;
30096;SDS011;16915;51.466;3.610;2023-06-10T06:11:02;8.55;;;7.82;;
30096;SDS011;16915;51.466;3.610;2023-06-10T06:13:27;9.75;;;7.72;;
30096;SDS011;16915;51.466;3.610;2023-06-10T06:15:53;12.73;;;7.85;;
30096;SDS011;16915;51.466;3.610;2023-06-10T06:18:18;10.30;;;8.75;;
30096;SDS011;16915;51.466;3.610;2023-06-10T06:20:44;8.93;;;8.10;;
30096;SDS011;16915;51.466;3.610;2023-06-10T06:23:09;9.15;;;7.80;;
30096;SDS011;16915;51.466;3.610;2023-06-10T06:25:35;8.90;;;8.00;;
30096;SDS011;16915;51.466;3.610;2023-06-10T06:28:03;9.88;;;7.57;;
30096;SDS011;16915;51.466;3.610;2023-06-10T06:30:33;8.73;;;7.90;;
30096;SDS011;16915;51.466;3.610;2023-06-10T06:33:00;9.15;;;7.78;;
30096;SDS011;16915;51.466;3.610;2023-06-10T06:35:25;9.25;;;8.35;;
30096;SDS011;16915;51.466;3.610;2023-06-10T06:37:51;8.52;;;7.78;;
30096;SDS011;16915;51.466;3.610;2023-06-10T06:40:16;9.15;;;8.23;;
30096;SDS011;16915;51.466;3.610;2023-06-10T06:42:42;7.90;;;7.30;;
30096;SDS011;16915;51.466;3.610;2023-06-10T06:45:07;8.77;;;7.97;;
30096;SDS011;16915;51.466;3.610;2023-06-10T06:47:33;9.25;;;7.82;;
30096;SDS011;16915;51.466;3.610;2023-06-10T06:49:59;9.98;;;8.27;;
30096;SDS011;16915;51.466;3.610;2023-06-10T06:52:25;10.30;;;7.95;;
30096;SDS011;16915;51.466;3.610;2023-06-10T06:54:51;10.43;;;7.88;;
30096;SDS011;16915;51.466;3.610;2023-06-10T06:57:16;8.45;;;7.70;;
30096;SDS011;16915;51.466;3.610;2023-06-10T06:59:42;8.05;;;7.32;;
30096;SDS011;16915;51.466;3.610;2023-06-10T07:02:07;9.02;;;8.13;;
30096;SDS011;16915;51.466;3.610;2023-06-10T07:04:33;8.60;;;7.65;;
30096;SDS011;16915;51.466;3.610;2023-06-10T07:06:58;9.45;;;7.85;;
30096;SDS011;16915;51.466;3.610;2023-06-10T07:09:24;9.02;;;7.75;;
30096;SDS011;16915;51.466;3.610;2023-06-10T07:11:49;11.82;;;7.88;;
30096;SDS011;16915;51.466;3.610;2023-06-10T07:14:15;8.07;;;7.30;;
30096;SDS011;16915;51.466;3.610;2023-06-10T07:16:41;8.80;;;7.45;;
30096;SDS011;16915;51.466;3.610;2023-06-10T07:19:06;9.13;;;8.15;;
30096;SDS011;16915;51.466;3.610;2023-06-10T07:21:32;8.82;;;7.88;;
30096;SDS011;16915;51.466;3.610;2023-06-10T07:23:58;7.90;;;7.15;;
30096;SDS011;16915;51.466;3.610;2023-06-10T07:26:24;8.18;;;7.15;;
30096;SDS011;16915;51.466;3.610;2023-06-10T07:28:50;8.73;;;7.50;;
30096;SDS011;16915;51.466;3.610;2023-06-10T07:31:16;9.73;;;7.72;;
30096;SDS011;16915;51.466;3.610;2023-06-10T07:33:42;13.98;;;7.45;;
30096;SDS011;16915;51.466;3.610;2023-06-10T07:36:08;8.70;;;7.25;;
30096;SDS011;16915;51.466;3.610;2023-06-10T07:38:34;7.78;;;7.05;;
30096;SDS011;16915;51.466;3.610;2023-06-10T07:41:00;7.95;;;7.00;;
30096;SDS011;16915;51.466;3.610;2023-06-10T07:43:26;8.88;;;7.53;;
30096;SDS011;16915;51.466;3.610;2023-06-10T07:45:52;11.18;;;7.80;;
30096;SDS011;16915;51.466;3.610;2023-06-10T07:48:17;8.80;;;7.57;;
30096;SDS011;16915;51.466;3.610;2023-06-10T07:50:43;9.80;;;6.88;;
30096;SDS011;16915;51.466;3.610;2023-06-10T07:53:09;8.35;;;7.30;;
30096;SDS011;16915;51.466;3.610;2023-06-10T07:55:34;8.63;;;7.85;;
30096;SDS011;16915;51.466;3.610;2023-06-10T07:58:00;8.30;;;7.55;;
30096;SDS011;16915;51.466;3.610;2023-06-10T08:00:25;8.50;;;7.18;;
30096;SDS011;16915;51.466;3.610;2023-06-10T08:02:51;10.05;;;7.68;;
30096;SDS011;16915;51.466;3.610;2023-06-10T08:05:16;8.98;;;7.28;;
30096;SDS011;16915;51.466;3.610;2023-06-10T08:07:42;11.23;;;7.68;;
30096;SDS011;16915;51.466;3.610;2023-06-10T08:10:08;9.93;;;7.22;;
30096;SDS011;16915;51.466;3.610;2023-06-10T08:12:34;8.45;;;7.57;;
30096;SDS011;16915;51.466;3.610;2023-06-10T08:15:00;9.48;;;7.30;;
30096;SDS011;16915;51.466;3.610;2023-06-10T08:17:29;11.52;;;7.45;;
30096;SDS011;16915;51.466;3.610;2023-06-10T08:19:57;9.55;;;7.40;;
30096;SDS011;16915;51.466;3.610;2023-06-10T08:22:23;8.77;;;7.00;;
30096;SDS011;16915;51.466;3.610;2023-06-10T08:24:48;15.25;;;7.90;;
30096;SDS011;16915;51.466;3.610;2023-06-10T08:27:14;7.85;;;7.15;;
30096;SDS011;16915;51.466;3.610;2023-06-10T08:29:39;10.55;;;8.75;;
30096;SDS011;16915;51.466;3.610;2023-06-10T08:32:05;11.20;;;8.40;;
30096;SDS011;16915;51.466;3.610;2023-06-10T08:34:33;8.85;;;7.63;;
30096;SDS011;16915;51.466;3.610;2023-06-10T08:37:00;13.20;;;7.95;;
30096;SDS011;16915;51.466;3.610;2023-06-10T08:39:26;15.18;;;8.43;;
30096;SDS011;16915;51.466;3.610;2023-06-10T08:44:42;11.63;;;7.72;;
30096;SDS011;16915;51.466;3.610;2023-06-10T08:47:13;7.57;;;6.88;;
30096;SDS011;16915;51.466;3.610;2023-06-10T08:49:41;7.88;;;7.20;;
30096;SDS011;16915;51.466;3.610;2023-06-10T08:52:09;8.07;;;7.00;;
30096;SDS011;16915;51.466;3.610;2023-06-10T08:54:42;8.25;;;7.40;;
30096;SDS011;16915;51.466;3.610;2023-06-10T08:57:18;13.02;;;8.63;;
30096;SDS011;16915;51.466;3.610;2023-06-10T08:59:46;8.43;;;7.60;;
30096;SDS011;16915;51.466;3.610;2023-06-10T09:02:13;10.50;;;7.55;;
30096;SDS011;16915;51.466;3.610;2023-06-10T09:04:40;8.73;;;8.02;;
30096;SDS011;16915;51.466;3.610;2023-06-10T09:07:07;11.20;;;7.32;;
30096;SDS011;16915;51.466;3.610;2023-06-10T09:09:33;8.43;;;7.10;;
30096;SDS011;16915;51.466;3.610;2023-06-10T09:12:00;9.00;;;6.75;;
30096;SDS011;16915;51.466;3.610;2023-06-10T09:14:26;7.93;;;7.13;;
30096;SDS011;16915;51.466;3.610;2023-06-10T09:16:52;8.20;;;7.38;;
30096;SDS011;16915;51.466;3.610;2023-06-10T09:19:21;7.60;;;6.63;;
30096;SDS011;16915;51.466;3.610;2023-06-10T09:21:48;7.65;;;6.90;;
30096;SDS011;16915;51.466;3.610;2023-06-10T09:24:13;12.15;;;7.55;;
30096;SDS011;16915;51.466;3.610;2023-06-10T09:26:39;8.02;;;7.32;;
30096;SDS011;16915;51.466;3.610;2023-06-10T09:29:07;9.50;;;7.65;;
30096;SDS011;16915;51.466;3.610;2023-06-10T09:31:34;8.07;;;7.03;;
30096;SDS011;16915;51.466;3.610;2023-06-10T09:34:09;8.15;;;6.68;;
30096;SDS011;16915;51.466;3.610;2023-06-10T09:36:35;8.18;;;7.43;;
30096;SDS011;16915;51.466;3.610;2023-06-10T09:39:02;7.88;;;6.93;;
30096;SDS011;16915;51.466;3.610;2023-06-10T09:41:34;7.72;;;7.00;;
30096;SDS011;16915;51.466;3.610;2023-06-10T09:44:01;7.97;;;7.18;;
30096;SDS011;16915;51.466;3.610;2023-06-10T09:46:30;8.68;;;6.88;;
30096;SDS011;16915;51.466;3.610;2023-06-10T09:48:58;7.97;;;7.22;;
30096;SDS011;16915;51.466;3.610;2023-06-10T09:51:23;7.85;;;6.90;;
30096;SDS011;16915;51.466;3.610;2023-06-10T09:53:52;7.63;;;6.95;;
30096;SDS011;16915;51.466;3.610;2023-06-10T09:56:18;7.85;;;6.90;;
30096;SDS011;16915;51.466;3.610;2023-06-10T09:58:45;11.27;;;7.10;;
30096;SDS011;16915;51.466;3.610;2023-06-10T10:01:12;7.38;;;6.70;;
30096;SDS011;16915;51.466;3.610;2023-06-10T10:03:42;7.35;;;6.25;;
30096;SDS011;16915;51.466;3.610;2023-06-10T10:06:12;7.43;;;6.68;;
30096;SDS011;16915;51.466;3.610;2023-06-10T10:08:39;9.43;;;7.45;;
30096;SDS011;16915;51.466;3.610;2023-06-10T10:11:05;6.97;;;6.30;;
30096;SDS011;16915;51.466;3.610;2023-06-10T10:13:32;6.72;;;5.70;;
30096;SDS011;16915;51.466;3.610;2023-06-10T10:16:00;6.28;;;5.78;;
30096;SDS011;16915;51.466;3.610;2023-06-10T10:18:29;6.72;;;6.10;;
30096;SDS011;16915;51.466;3.610;2023-06-10T10:20:57;6.20;;;5.68;;
30096;SDS011;16915;51.466;3.610;2023-06-10T10:23:29;5.90;;;5.50;;
30096;SDS011;16915;51.466;3.610;2023-06-10T10:26:00;7.22;;;5.97;;
30096;SDS011;16915;51.466;3.610;2023-06-10T10:28:34;6.80;;;6.20;;
30096;SDS011;16915;51.466;3.610;2023-06-10T10:31:07;6.32;;;5.80;;
30096;SDS011;16915;51.466;3.610;2023-06-10T10:33:45;6.28;;;5.70;;
30096;SDS011;16915;51.466;3.610;2023-06-10T10:36:21;7.40;;;5.60;;
30096;SDS011;16915;51.466;3.610;2023-06-10T10:38:47;6.50;;;5.90;;
30096;SDS011;16915;51.466;3.610;2023-06-10T10:41:14;6.00;;;5.60;;
30096;SDS011;16915;51.466;3.610;2023-06-10T10:43:41;5.45;;;5.05;;
30096;SDS011;16915;51.466;3.610;2023-06-10T10:46:12;5.22;;;4.72;;
30096;SDS011;16915;51.466;3.610;2023-06-10T10:51:08;8.85;;;4.95;;
30096;SDS011;16915;51.466;3.610;2023-06-10T10:53:38;5.80;;;5.20;;
30096;SDS011;16915;51.466;3.610;2023-06-10T10:56:05;7.77;;;4.97;;
30096;SDS011;16915;51.466;3.610;2023-06-10T10:58:32;6.28;;;5.70;;
30096;SDS011;16915;51.466;3.610;2023-06-10T11:00:58;5.68;;;5.05;;
30096;SDS011;16915;51.466;3.610;2023-06-10T11:03:27;5.97;;;4.43;;
30096;SDS011;16915;51.466;3.610;2023-06-10T11:05:57;10.35;;;4.78;;
30096;SDS011;16915;51.466;3.610;2023-06-10T11:10:58;6.55;;;5.07;;
30096;SDS011;16915;51.466;3.610;2023-06-10T11:13:25;9.20;;;5.20;;
30096;SDS011;16915;51.466;3.610;2023-06-10T11:15:52;6.40;;;5.07;;
30096;SDS011;16915;51.466;3.610;2023-06-10T11:20:58;5.47;;;4.97;;
30096;SDS011;16915;51.466;3.610;2023-06-10T11:31:19;5.40;;;4.90;;
30096;SDS011;16915;51.466;3.610;2023-06-10T11:33:54;6.22;;;4.78;;
30096;SDS011;16915;51.466;3.610;2023-06-10T11:36:28;5.63;;;5.00;;
30096;SDS011;16915;51.466;3.610;2023-06-10T11:38:57;5.35;;;4.85;;
30096;SDS011;16915;51.466;3.610;2023-06-10T11:41:24;6.75;;;6.25;;
30096;SDS011;16915;51.466;3.610;2023-06-10T11:43:51;7.40;;;5.93;;
30096;SDS011;16915;51.466;3.610;2023-06-10T11:46:18;6.28;;;5.88;;
30096;SDS011;16915;51.466;3.610;2023-06-10T11:49:05;8.40;;;7.60;;
30096;SDS011;16915;51.466;3.610;2023-06-10T11:51:32;11.27;;;5.93;;
30096;SDS011;16915;51.466;3.610;2023-06-10T11:54:03;8.90;;;7.95;;
30096;SDS011;16915;51.466;3.610;2023-06-10T11:56:30;7.70;;;7.10;;
30096;SDS011;16915;51.466;3.610;2023-06-10T11:58:57;7.45;;;6.85;;
30096;SDS011;16915;51.466;3.610;2023-06-10T12:01:42;9.82;;;6.25;;
30096;SDS011;16915;51.466;3.610;2023-06-10T12:04:10;5.78;;;5.25;;
30096;SDS011;16915;51.466;3.610;2023-06-10T12:06:37;5.63;;;5.10;;
30096;SDS011;16915;51.466;3.610;2023-06-10T12:09:13;6.75;;;5.20;;
30096;SDS011;16915;51.466;3.610;2023-06-10T12:11:43;5.55;;;5.05;;
30096;SDS011;16915;51.466;3.610;2023-06-10T12:14:09;5.68;;;4.72;;
30096;SDS011;16915;51.466;3.610;2023-06-10T12:16:35;5.95;;;5.18;;
30096;SDS011;16915;51.466;3.610;2023-06-10T12:19:03;5.40;;;4.95;;
30096;SDS011;16915;51.466;3.610;2023-06-10T12:21:31;5.60;;;4.85;;
30096;SDS011;16915;51.466;3.610;2023-06-10T12:24:01;5.20;;;4.80;;
30096;SDS011;16915;51.466;3.610;2023-06-10T12:26:53;6.47;;;5.72;;
30096;SDS011;16915;51.466;3.610;2023-06-10T12:29:21;5.28;;;4.72;;
30096;SDS011;16915;51.466;3.610;2023-06-10T12:34:19;5.30;;;4.70;;
30096;SDS011;16915;51.466;3.610;2023-06-10T12:36:51;5.18;;;4.75;;
30096;SDS011;16915;51.466;3.610;2023-06-10T12:39:17;5.30;;;4.90;;
30096;SDS011;16915;51.466;3.610;2023-06-10T12:41:47;5.07;;;4.65;;
30096;SDS011;16915;51.466;3.610;2023-06-10T12:44:13;5.10;;;4.63;;
30096;SDS011;16915;51.466;3.610;2023-06-10T12:46:39;6.45;;;4.80;;
30096;SDS011;16915;51.466;3.610;2023-06-10T12:49:04;5.15;;;4.75;;
30096;SDS011;16915;51.466;3.610;2023-06-10T12:51:30;5.28;;;4.78;;
30096;SDS011;16915;51.466;3.610;2023-06-10T12:53:56;5.07;;;4.78;;
30096;SDS011;16915;51.466;3.610;2023-06-10T12:56:22;4.97;;;4.53;;
30096;SDS011;16915;51.466;3.610;2023-06-10T12:58:48;6.85;;;4.53;;
30096;SDS011;16915;51.466;3.610;2023-06-10T13:01:14;4.63;;;4.32;;
30096;SDS011;16915;51.466;3.610;2023-06-10T13:03:40;5.00;;;4.57;;
30096;SDS011;16915;51.466;3.610;2023-06-10T13:06:05;4.78;;;4.47;;
30096;SDS011;16915;51.466;3.610;2023-06-10T13:08:31;5.28;;;4.78;;
30096;SDS011;16915;51.466;3.610;2023-06-10T13:10:57;7.82;;;4.35;;
30096;SDS011;16915;51.466;3.610;2023-06-10T13:13:24;5.13;;;4.63;;
30096;SDS011;16915;51.466;3.610;2023-06-10T13:15:50;9.07;;;4.97;;
30096;SDS011;16915;51.466;3.610;2023-06-10T13:18:16;6.72;;;4.80;;
30096;SDS011;16915;51.466;3.610;2023-06-10T13:20:44;4.78;;;4.47;;
30096;SDS011;16915;51.466;3.610;2023-06-10T13:23:10;5.10;;;4.70;;
30096;SDS011;16915;51.466;3.610;2023-06-10T13:25:35;4.38;;;4.03;;
30096;SDS011;16915;51.466;3.610;2023-06-10T13:28:01;5.22;;;4.80;;
30096;SDS011;16915;51.466;3.610;2023-06-10T13:30:27;6.80;;;4.90;;
30096;SDS011;16915;51.466;3.610;2023-06-10T13:32:53;7.75;;;4.75;;
30096;SDS011;16915;51.466;3.610;2023-06-10T13:35:19;5.18;;;4.82;;
30096;SDS011;16915;51.466;3.610;2023-06-10T13:37:44;7.78;;;5.43;;
30096;SDS011;16915;51.466;3.610;2023-06-10T13:40:10;7.47;;;5.00;;
30096;SDS011;16915;51.466;3.610;2023-06-10T13:42:36;5.07;;;4.68;;
30096;SDS011;16915;51.466;3.610;2023-06-10T13:45:05;5.43;;;5.05;;
30096;SDS011;16915;51.466;3.610;2023-06-10T13:47:31;6.88;;;5.43;;
30096;SDS011;16915;51.466;3.610;2023-06-10T13:49:56;5.15;;;4.85;;
30096;SDS011;16915;51.466;3.610;2023-06-10T13:52:22;5.15;;;4.75;;
30096;SDS011;16915;51.466;3.610;2023-06-10T13:54:47;5.13;;;4.72;;
30096;SDS011;16915;51.466;3.610;2023-06-10T13:57:13;5.10;;;4.70;;
30096;SDS011;16915;51.466;3.610;2023-06-10T13:59:38;6.82;;;4.75;;
30096;SDS011;16915;51.466;3.610;2023-06-10T14:02:04;4.70;;;4.30;;
30096;SDS011;16915;51.466;3.610;2023-06-10T14:04:30;7.63;;;4.63;;
30096;SDS011;16915;51.466;3.610;2023-06-10T14:06:55;5.53;;;5.03;;
30096;SDS011;16915;51.466;3.610;2023-06-10T14:09:22;8.63;;;4.00;;
30096;SDS011;16915;51.466;3.610;2023-06-10T14:11:47;7.60;;;4.85;;
30096;SDS011;16915;51.466;3.610;2023-06-10T14:14:13;5.10;;;4.75;;
30096;SDS011;16915;51.466;3.610;2023-06-10T14:16:39;5.07;;;4.38;;
30096;SDS011;16915;51.466;3.610;2023-06-10T14:19:05;5.63;;;5.00;;
30096;SDS011;16915;51.466;3.610;2023-06-10T14:21:31;7.20;;;4.70;;
30096;SDS011;16915;51.466;3.610;2023-06-10T14:23:56;9.45;;;5.10;;
30096;SDS011;16915;51.466;3.610;2023-06-10T14:26:22;4.82;;;4.50;;
30096;SDS011;16915;51.466;3.610;2023-06-10T14:28:48;4.32;;;4.03;;
30096;SDS011;16915;51.466;3.610;2023-06-10T14:31:14;5.28;;;4.80;;
30096;SDS011;16915;51.466;3.610;2023-06-10T14:33:40;5.35;;;4.85;;
30096;SDS011;16915;51.466;3.610;2023-06-10T14:36:07;5.15;;;4.50;;
30096;SDS011;16915;51.466;3.610;2023-06-10T14:38:32;5.30;;;4.78;;
30096;SDS011;16915;51.466;3.610;2023-06-10T14:40:58;4.50;;;4.10;;
30096;SDS011;16915;51.466;3.610;2023-06-10T14:43:23;5.55;;;5.07;;
30096;SDS011;16915;51.466;3.610;2023-06-10T14:45:49;4.70;;;4.40;;
30096;SDS011;16915;51.466;3.610;2023-06-10T14:48:16;5.40;;;5.00;;
30096;SDS011;16915;51.466;3.610;2023-06-10T14:50:41;5.43;;;4.93;;
30096;SDS011;16915;51.466;3.610;2023-06-10T14:53:10;5.00;;;4.60;;
30096;SDS011;16915;51.466;3.610;2023-06-10T14:55:35;5.40;;;4.90;;
30096;SDS011;16915;51.466;3.610;2023-06-10T14:58:01;5.18;;;4.53;;
30096;SDS011;16915;51.466;3.610;2023-06-10T15:00:26;5.13;;;4.75;;
30096;SDS011;16915;51.466;3.610;2023-06-10T15:02:52;7.05;;;5.05;;
30096;SDS011;16915;51.466;3.610;2023-06-10T15:05:20;7.20;;;5.03;;
30096;SDS011;16915;51.466;3.610;2023-06-10T15:07:46;6.78;;;4.53;;